MSC Fillippa — A8XT7 — position and weather

sailwx.info

Track history (hours):
 
Tides and Currents Weather Stations Pressure Air Temp Water Temp Dewpoint Dewpoint Depression Visibility Wind Speed Wind Dir Waves Ship Positions

MSC Fillippa

Last reported at 2018-Jan-11 23:34 UTC. Time now 2018-Jan-18 14:05 UTC.
Position N 38°37' E 008°35'.

Length 366 m; draft 14.8 m.

Type: Ship (hazmat cat A). MMSI: 636092168.

Date/timePositionNaut miles runAvg speedWind from/ knotsBaromVisibWave heightAir tempDewpointWater temp
2018-Jan-11 23:34N 38°37' E 008°35'117.1
2018-Jan-11 23:29N 38°36' E 008°36'26916.0
2018-Jan-11 06:40N 36°45' E 013°46'1015.9
2018-Jan-11 06:01N 36°41' E 013°58'215.7
2018-Jan-11 05:55N 36°41' E 013°60'716.1
2018-Jan-11 05:30N 36°38' E 014°07'916.3
2018-Jan-11 04:59N 36°35' E 014°17'816.4
2018-Jan-11 04:30N 36°32' E 014°26'816.1
2018-Jan-11 04:00N 36°29' E 014°36'815.8
2018-Jan-11 03:30N 36°29' E 014°46'40116.3
2018-Jan-10 02:55N 36°25' E 023°04'915.7
2018-Jan-10 02:21N 36°26' E 023°15'1916.7
2018-Jan-10 01:12N 36°43' E 023°24'816.8
2018-Jan-10 00:45N 36°50' E 023°28'416.5
2018-Jan-10 00:30N 36°54' E 023°30'816.6
2018-Jan-10 00:00N 37°01' E 023°35'816.5
2018-Jan-09 23:31N 37°09' E 023°39'916.6
2018-Jan-09 23:00N 37°17' E 023°43'816.3
2018-Jan-09 22:31N 37°25' E 023°44'917.2
2018-Jan-09 22:01N 37°33' E 023°45'918.7
2018-Jan-09 21:31N 37°42' E 023°41'919.0
2018-Jan-09 21:01N 37°51' E 023°37'611.8
2018-Jan-09 20:30N 37°57' E 023°36'1 1.2
2018-Jan-09 20:00N 37°57' E 023°36'0 0.0
2018-Jan-09 19:30N 37°57' E 023°36'0 0.0
2018-Jan-09 19:00N 37°57' E 023°36'0 0.0
2018-Jan-09 18:30N 37°57' E 023°36'0 0.0
2018-Jan-09 18:00N 37°57' E 023°36'0 0.0
2018-Jan-09 17:30N 37°57' E 023°36'0 0.0
2018-Jan-09 17:00N 37°57' E 023°36'0 0.0
2018-Jan-09 16:30N 37°57' E 023°36'0 0.0
2018-Jan-09 16:00N 37°57' E 023°36'0 0.0
2018-Jan-09 15:30N 37°57' E 023°36'0 0.0
2018-Jan-09 15:00N 37°57' E 023°36'0 0.0
2018-Jan-09 14:30N 37°57' E 023°36'0 0.0
2018-Jan-09 14:00N 37°57' E 023°36'0 0.0
2018-Jan-09 13:30N 37°57' E 023°36'0 0.0
2018-Jan-09 13:00N 37°57' E 023°36'0 0.0
2018-Jan-09 12:30N 37°57' E 023°36'0 0.0
2018-Jan-09 11:57N 37°57' E 023°36'0 0.0
2018-Jan-09 11:30N 37°57' E 023°36'0 0.0
2018-Jan-09 11:00N 37°57' E 023°36'0 0.0
2018-Jan-09 10:27N 37°57' E 023°36'0 0.0
2018-Jan-09 10:00N 37°57' E 023°36'0 0.0
2018-Jan-09 09:30N 37°57' E 023°36'0 0.0
2018-Jan-09 08:57N 37°57' E 023°36'0 0.0
2018-Jan-09 08:27N 37°57' E 023°36'0 0.0
2018-Jan-09 08:00N 37°57' E 023°36'0 0.0
2018-Jan-09 07:30N 37°57' E 023°36'1 1.3
2018-Jan-09 07:00N 37°57' E 023°36'2 4.5
2018-Jan-09 06:30N 37°55' E 023°36'2 3.6
2018-Jan-09 06:00N 37°53' E 023°36'1 1.6
2018-Jan-09 05:30N 37°52' E 023°37'0 0.4
2018-Jan-09 05:00N 37°52' E 023°36'0 0.3
2018-Jan-09 04:30N 37°52' E 023°36'0 0.2
2018-Jan-09 04:00N 37°52' E 023°36'2 3.2
2018-Jan-09 03:30N 37°51' E 023°37'3 6.6
2018-Jan-09 03:00N 37°48' E 023°40'613.0
2018-Jan-09 02:30N 37°43' E 023°44'816.5
2018-Jan-09 02:00N 37°35' E 023°47'816.1
2018-Jan-09 01:30N 37°27' E 023°50'816.3
2018-Jan-09 01:00N 37°20' E 023°54'815.8
2018-Jan-09 00:30N 37°12' E 023°58'816.1
2018-Jan-09 00:00N 37°05' E 024°02'1716.4
2018-Jan-08 22:57N 36°49' E 024°10'1116.3
2018-Jan-08 22:18N 36°39' E 024°14'715.9
2018-Jan-08 21:53N 36°34' E 024°19'616.2
2018-Jan-08 21:30N 36°30' E 024°26'816.0
2018-Jan-08 21:00N 36°26' E 024°34'816.2
2018-Jan-08 20:30N 36°21' E 024°42'816.2
2018-Jan-08 20:00N 36°16' E 024°50'816.3
2018-Jan-08 19:30N 36°11' E 024°58'815.9
2018-Jan-08 19:00N 36°07' E 025°06'815.8
2018-Jan-08 18:30N 36°02' E 025°14'816.2
2018-Jan-08 18:00N 35°57' E 025°22'816.4
2018-Jan-08 17:30N 35°52' E 025°30'815.9
2018-Jan-08 17:00N 35°47' E 025°38'816.0
2018-Jan-08 16:30N 35°43' E 025°46'816.1
2018-Jan-08 16:00N 35°38' E 025°54'816.2
2018-Jan-08 15:30N 35°33' E 026°02'815.9
2018-Jan-08 15:00N 35°29' E 026°10'816.0
2018-Jan-08 14:30N 35°24' E 026°18'816.3
2018-Jan-08 14:00N 35°19' E 026°26'816.2
2018-Jan-08 13:30N 35°14' E 026°33'3216.4
2018-Jan-08 11:35N 34°55' E 027°04'116.5
2018-Jan-08 11:30N 34°54' E 027°05'1116.4
2018-Jan-08 10:51N 34°47' E 027°16'3316.2
2018-Jan-08 08:50N 34°27' E 027°47'916.1
2018-Jan-08 08:14N 34°21' E 027°56'4016.6
2018-Jan-08 05:49N 33°57' E 028°35'  
Track history (hours):
 
Tides and Currents Weather Stations Pressure Air Temp Water Temp Dewpoint Dewpoint Depression Visibility Wind Speed Wind Dir Waves Ship Positions

MSC Fillippa

Last reported at 2018-Jan-11 23:34 UTC. Time now 2018-Jan-18 14:05 UTC.
Position N 38°37' E 008°35'.

Length 366 m; draft 14.8 m.

Type: Ship (hazmat cat A). MMSI: 636092168.

Date/timePositionNaut miles runAvg speedWind from/ knotsBaromVisibWave heightAir tempDewpointWater temp
2018-Jan-11 23:34N 38°37' E 008°35'117.1
2018-Jan-11 23:29N 38°36' E 008°36'26916.0
2018-Jan-11 06:40N 36°45' E 013°46'1015.9
2018-Jan-11 06:01N 36°41' E 013°58'215.7
2018-Jan-11 05:55N 36°41' E 013°60'716.1
2018-Jan-11 05:30N 36°38' E 014°07'916.3
2018-Jan-11 04:59N 36°35' E 014°17'816.4
2018-Jan-11 04:30N 36°32' E 014°26'816.1
2018-Jan-11 04:00N 36°29' E 014°36'815.8
2018-Jan-11 03:30N 36°29' E 014°46'40116.3
2018-Jan-10 02:55N 36°25' E 023°04'915.7
2018-Jan-10 02:21N 36°26' E 023°15'1916.7
2018-Jan-10 01:12N 36°43' E 023°24'816.8
2018-Jan-10 00:45N 36°50' E 023°28'416.5
2018-Jan-10 00:30N 36°54' E 023°30'816.6
2018-Jan-10 00:00N 37°01' E 023°35'816.5
2018-Jan-09 23:31N 37°09' E 023°39'916.6
2018-Jan-09 23:00N 37°17' E 023°43'816.3
2018-Jan-09 22:31N 37°25' E 023°44'917.2
2018-Jan-09 22:01N 37°33' E 023°45'918.7
2018-Jan-09 21:31N 37°42' E 023°41'919.0
2018-Jan-09 21:01N 37°51' E 023°37'611.8
2018-Jan-09 20:30N 37°57' E 023°36'1 1.2
2018-Jan-09 20:00N 37°57' E 023°36'0 0.0
2018-Jan-09 19:30N 37°57' E 023°36'0 0.0
2018-Jan-09 19:00N 37°57' E 023°36'0 0.0
2018-Jan-09 18:30N 37°57' E 023°36'0 0.0
2018-Jan-09 18:00N 37°57' E 023°36'0 0.0
2018-Jan-09 17:30N 37°57' E 023°36'0 0.0
2018-Jan-09 17:00N 37°57' E 023°36'0 0.0
2018-Jan-09 16:30N 37°57' E 023°36'0 0.0
2018-Jan-09 16:00N 37°57' E 023°36'0 0.0
2018-Jan-09 15:30N 37°57' E 023°36'0 0.0
2018-Jan-09 15:00N 37°57' E 023°36'0 0.0
2018-Jan-09 14:30N 37°57' E 023°36'0 0.0
2018-Jan-09 14:00N 37°57' E 023°36'0 0.0
2018-Jan-09 13:30N 37°57' E 023°36'0 0.0
2018-Jan-09 13:00N 37°57' E 023°36'0 0.0
2018-Jan-09 12:30N 37°57' E 023°36'0 0.0
2018-Jan-09 11:57N 37°57' E 023°36'0 0.0
2018-Jan-09 11:30N 37°57' E 023°36'0 0.0
2018-Jan-09 11:00N 37°57' E 023°36'0 0.0
2018-Jan-09 10:27N 37°57' E 023°36'0 0.0
2018-Jan-09 10:00N 37°57' E 023°36'0 0.0
2018-Jan-09 09:30N 37°57' E 023°36'0 0.0
2018-Jan-09 08:57N 37°57' E 023°36'0 0.0
2018-Jan-09 08:27N 37°57' E 023°36'0 0.0
2018-Jan-09 08:00N 37°57' E 023°36'0 0.0
2018-Jan-09 07:30N 37°57' E 023°36'1 1.3
2018-Jan-09 07:00N 37°57' E 023°36'2 4.5
2018-Jan-09 06:30N 37°55' E 023°36'2 3.6
2018-Jan-09 06:00N 37°53' E 023°36'1 1.6
2018-Jan-09 05:30N 37°52' E 023°37'0 0.4
2018-Jan-09 05:00N 37°52' E 023°36'0 0.3
2018-Jan-09 04:30N 37°52' E 023°36'0 0.2
2018-Jan-09 04:00N 37°52' E 023°36'2 3.2
2018-Jan-09 03:30N 37°51' E 023°37'3 6.6
2018-Jan-09 03:00N 37°48' E 023°40'613.0
2018-Jan-09 02:30N 37°43' E 023°44'816.5
2018-Jan-09 02:00N 37°35' E 023°47'816.1
2018-Jan-09 01:30N 37°27' E 023°50'816.3
2018-Jan-09 01:00N 37°20' E 023°54'815.8
2018-Jan-09 00:30N 37°12' E 023°58'816.1
2018-Jan-09 00:00N 37°05' E 024°02'1716.4
2018-Jan-08 22:57N 36°49' E 024°10'1116.3
2018-Jan-08 22:18N 36°39' E 024°14'715.9
2018-Jan-08 21:53N 36°34' E 024°19'616.2
2018-Jan-08 21:30N 36°30' E 024°26'816.0
2018-Jan-08 21:00N 36°26' E 024°34'816.2
2018-Jan-08 20:30N 36°21' E 024°42'816.2
2018-Jan-08 20:00N 36°16' E 024°50'816.3
2018-Jan-08 19:30N 36°11' E 024°58'815.9
2018-Jan-08 19:00N 36°07' E 025°06'815.8
2018-Jan-08 18:30N 36°02' E 025°14'816.2
2018-Jan-08 18:00N 35°57' E 025°22'816.4
2018-Jan-08 17:30N 35°52' E 025°30'815.9
2018-Jan-08 17:00N 35°47' E 025°38'816.0
2018-Jan-08 16:30N 35°43' E 025°46'816.1
2018-Jan-08 16:00N 35°38' E 025°54'816.2
2018-Jan-08 15:30N 35°33' E 026°02'815.9
2018-Jan-08 15:00N 35°29' E 026°10'816.0
2018-Jan-08 14:30N 35°24' E 026°18'816.3
2018-Jan-08 14:00N 35°19' E 026°26'816.2
2018-Jan-08 13:30N 35°14' E 026°33'3216.4
2018-Jan-08 11:35N 34°55' E 027°04'116.5
2018-Jan-08 11:30N 34°54' E 027°05'1116.4
2018-Jan-08 10:51N 34°47' E 027°16'3316.2
2018-Jan-08 08:50N 34°27' E 027°47'916.1
2018-Jan-08 08:14N 34°21' E 027°56'4016.6
2018-Jan-08 05:49N 33°57' E 028°35'  

Dump ship's entire track history